Time;durP1;ratioP1;P1;durP2;ratioP2;P2;SDS_P1;SDS_P2;PMS_P1;PMS_P2;Temp;Humidity;BMP_temperature;BMP_pressure;BME280_temperature;BME280_humidity;BME280_pressure;Samples;Min_cycle;Max_cycle;Signal;HPM_P1;HPM_P2
2024/01/28 00:00:17;;;;;;;16.13;9.67;;;0.10;99.90;;;;;;4988119;28;20209;-60
2024/01/28 00:02:43;;;;;;;16.50;9.90;;;0.10;99.90;;;;;;4983887;28;20415;-60
2024/01/28 00:05:12;;;;;;;22.53;9.87;;;0.10;99.90;;;;;;4984267;28;20442;-60
2024/01/28 00:07:38;;;;;;;17.47;9.20;;;0.10;99.90;;;;;;4981677;28;20238;-60
2024/01/28 00:10:04;;;;;;;17.20;9.70;;;0.10;99.90;;;;;;4987722;28;20459;-59
2024/01/28 00:12:30;;;;;;;11.67;7.90;;;0.00;99.90;;;;;;4989009;28;20683;-59
2024/01/28 00:14:56;;;;;;;14.93;8.27;;;0.00;99.90;;;;;;4985729;28;20971;-60
2024/01/28 00:17:22;;;;;;;15.57;8.10;;;0.00;99.90;;;;;;4986267;28;20914;-59
2024/01/28 00:19:48;;;;;;;17.57;9.13;;;-0.10;99.90;;;;;;4991707;28;20470;-60
2024/01/28 00:22:13;;;;;;;13.93;8.63;;;-0.10;99.90;;;;;;4990411;28;20238;-60
2024/01/28 00:24:39;;;;;;;12.30;8.00;;;-0.10;99.90;;;;;;4990811;28;20183;-60
2024/01/28 00:27:05;;;;;;;15.13;8.43;;;-0.10;99.90;;;;;;4988755;28;20706;-59
2024/01/28 00:29:30;;;;;;;14.73;8.70;;;-0.10;99.90;;;;;;4979536;28;20267;-60
2024/01/28 00:31:57;;;;;;;12.07;8.27;;;-0.10;99.90;;;;;;4988328;28;20442;-60
2024/01/28 00:34:24;;;;;;;11.87;8.00;;;-0.10;99.90;;;;;;4989790;28;20183;-59
2024/01/28 00:36:50;;;;;;;13.77;8.50;;;-0.20;99.90;;;;;;4991613;28;20930;-60
2024/01/28 00:39:15;;;;;;;12.30;7.80;;;-0.20;99.90;;;;;;4990704;28;20529;-59
2024/01/28 00:41:41;;;;;;;12.57;7.83;;;-0.20;99.90;;;;;;4987780;28;20307;-59
2024/01/28 00:44:06;;;;;;;13.20;8.50;;;-0.20;99.90;;;;;;4990927;28;20190;-59
2024/01/28 00:46:32;;;;;;;14.33;8.30;;;-0.20;99.90;;;;;;4990333;28;20203;-59
2024/01/28 00:48:58;;;;;;;14.27;8.57;;;-0.20;99.90;;;;;;4992623;28;20202;-59
2024/01/28 00:51:24;;;;;;;14.20;8.50;;;-0.30;99.90;;;;;;4989861;28;20185;-59
2024/01/28 00:53:49;;;;;;;14.63;8.00;;;-0.30;99.90;;;;;;4980727;28;20446;-59
2024/01/28 00:56:17;;;;;;;14.87;8.27;;;-0.30;99.90;;;;;;4990297;28;20670;-60
2024/01/28 00:58:43;;;;;;;14.93;8.07;;;-0.30;99.90;;;;;;4992117;28;20768;-59
2024/01/28 01:01:09;;;;;;;16.00;9.23;;;-0.30;99.90;;;;;;4990807;28;22140;-60
2024/01/28 01:03:34;;;;;;;23.33;9.00;;;-0.30;99.90;;;;;;4989651;28;21096;-60
2024/01/28 01:06:00;;;;;;;18.57;9.00;;;-0.40;99.90;;;;;;4990938;28;20207;-59
2024/01/28 01:08:26;;;;;;;18.27;9.47;;;-0.40;99.90;;;;;;4992052;28;20191;-58
2024/01/28 01:10:51;;;;;;;17.53;8.40;;;-0.40;99.90;;;;;;4986350;28;20184;-59
2024/01/28 01:13:18;;;;;;;15.77;8.83;;;-0.50;99.90;;;;;;4988354;28;20188;-60
2024/01/28 01:15:45;;;;;;;17.30;8.73;;;-0.50;99.90;;;;;;4988193;28;20264;-59
2024/01/28 01:18:10;;;;;;;16.03;7.93;;;-0.50;99.90;;;;;;4996267;28;20854;-59
2024/01/28 01:20:36;;;;;;;17.07;8.27;;;-0.50;99.90;;;;;;4990074;28;20462;-60
2024/01/28 01:23:02;;;;;;;18.13;8.63;;;-0.50;99.90;;;;;;4988943;28;20179;-58
2024/01/28 01:25:28;;;;;;;15.20;8.20;;;-0.50;99.90;;;;;;4985418;28;20783;-59
2024/01/28 01:27:53;;;;;;;19.20;9.70;;;-0.50;99.90;;;;;;4997280;28;20199;-60
2024/01/28 01:30:19;;;;;;;16.20;9.50;;;-0.50;99.90;;;;;;4990311;28;20210;-59
2024/01/28 01:32:45;;;;;;;18.83;9.27;;;-0.60;99.90;;;;;;4991097;28;20183;-60
2024/01/28 01:35:12;;;;;;;12.70;8.80;;;-0.60;99.90;;;;;;4984925;28;20449;-59
2024/01/28 01:37:38;;;;;;;16.27;8.40;;;-0.60;99.90;;;;;;4987979;28;20223;-59
2024/01/28 01:40:07;;;;;;;18.73;8.80;;;-0.60;99.90;;;;;;4988853;28;20438;-59
2024/01/28 01:42:33;;;;;;;20.00;8.20;;;-0.60;99.90;;;;;;4988853;28;20587;-60
2024/01/28 01:44:59;;;;;;;13.63;8.43;;;-0.70;99.90;;;;;;4982733;28;20515;-60
2024/01/28 01:47:25;;;;;;;16.37;8.70;;;-0.70;99.90;;;;;;4993510;28;20451;-60
2024/01/28 01:49:51;;;;;;;16.17;8.00;;;-0.70;99.90;;;;;;4989501;28;20612;-59
2024/01/28 01:52:18;;;;;;;15.10;8.40;;;-0.70;99.90;;;;;;4989838;28;20438;-60
2024/01/28 01:54:45;;;;;;;18.63;10.10;;;-0.60;99.90;;;;;;4990409;28;20423;-60
2024/01/28 01:57:11;;;;;;;13.30;7.80;;;-0.70;99.90;;;;;;4985118;28;20646;-60
2024/01/28 01:59:38;;;;;;;17.00;7.77;;;-0.70;99.90;;;;;;4989250;28;20438;-60
2024/01/28 02:02:07;;;;;;;13.87;7.70;;;-0.70;99.90;;;;;;4980991;28;20447;-59
2024/01/28 02:04:33;;;;;;;20.23;8.40;;;-0.70;99.90;;;;;;4985845;28;20433;-60
2024/01/28 02:06:59;;;;;;;15.30;7.70;;;-0.70;99.90;;;;;;4986850;28;20508;-61
2024/01/28 02:09:25;;;;;;;13.77;7.13;;;-0.70;99.90;;;;;;4987479;28;20491;-60
2024/01/28 02:11:50;;;;;;;14.17;7.17;;;-0.80;99.90;;;;;;4989068;28;20289;-58
2024/01/28 02:14:28;;;;;;;18.13;8.70;;;-0.70;99.90;;;;;;4986320;28;20190;-59
2024/01/28 02:16:59;;;;;;;12.90;7.67;;;-0.80;99.90;;;;;;4983469;28;20191;-60
2024/01/28 02:19:26;;;;;;;14.13;7.10;;;-0.80;99.90;;;;;;4986415;28;20877;-60
2024/01/28 02:21:52;;;;;;;13.97;7.30;;;-0.80;99.90;;;;;;4987562;28;21266;-60
2024/01/28 02:24:17;;;;;;;17.93;7.80;;;-0.80;99.90;;;;;;4989753;28;20518;-60
2024/01/28 02:26:43;;;;;;;18.70;8.53;;;-0.80;99.90;;;;;;4994994;28;20257;-60
2024/01/28 02:29:08;;;;;;;14.13;8.97;;;-0.80;99.90;;;;;;4988100;28;20665;-60
2024/01/28 02:31:34;;;;;;;19.37;9.00;;;-0.80;99.90;;;;;;4987304;28;20183;-60
2024/01/28 02:34:00;;;;;;;18.20;8.73;;;-0.80;99.90;;;;;;4985096;28;20238;-60
2024/01/28 02:36:27;;;;;;;20.23;10.13;;;-0.80;99.90;;;;;;4983502;28;20557;-61
2024/01/28 02:38:54;;;;;;;16.60;9.00;;;-0.80;99.90;;;;;;4988405;28;20481;-60
2024/01/28 02:41:20;;;;;;;14.30;9.07;;;-0.90;99.90;;;;;;4983327;28;20533;-60
2024/01/28 02:43:45;;;;;;;13.80;8.40;;;-0.90;99.90;;;;;;4984915;28;21056;-61
2024/01/28 02:46:11;;;;;;;16.63;8.77;;;-0.90;99.90;;;;;;4982112;28;20562;-60
2024/01/28 02:48:37;;;;;;;18.33;8.60;;;-0.90;99.90;;;;;;4986074;28;20183;-61
2024/01/28 02:51:02;;;;;;;17.57;9.07;;;-0.90;99.90;;;;;;4985338;28;20192;-59
2024/01/28 02:53:28;;;;;;;17.63;9.07;;;-0.90;99.90;;;;;;4985658;28;20796;-60
2024/01/28 02:55:57;;;;;;;17.07;8.80;;;-0.90;99.90;;;;;;4989415;28;20638;-60
2024/01/28 02:58:23;;;;;;;14.70;9.50;;;-1.00;99.90;;;;;;4988592;28;20211;-60
2024/01/28 03:00:48;;;;;;;17.17;9.70;;;-1.00;99.90;;;;;;4989588;28;20429;-61
2024/01/28 03:03:14;;;;;;;14.63;8.80;;;-1.00;99.90;;;;;;4990344;28;20221;-61
2024/01/28 03:05:39;;;;;;;11.70;7.63;;;-1.00;99.90;;;;;;4984213;28;20206;-60
2024/01/28 03:08:05;;;;;;;14.53;7.60;;;-1.10;99.90;;;;;;4984257;28;20201;-60
2024/01/28 03:10:31;;;;;;;14.37;7.90;;;-1.10;99.90;;;;;;4988403;28;20686;-61
2024/01/28 03:12:57;;;;;;;21.20;8.53;;;-1.10;99.90;;;;;;4992315;28;20440;-61
2024/01/28 03:15:22;;;;;;;16.70;7.60;;;-1.10;99.90;;;;;;4988234;28;20475;-60
2024/01/28 03:17:48;;;;;;;13.60;7.43;;;-1.10;99.90;;;;;;4988546;28;20281;-60
2024/01/28 03:20:18;;;;;;;14.53;7.27;;;-1.10;99.90;;;;;;4988106;28;20542;-60
2024/01/28 03:22:43;;;;;;;15.67;7.57;;;-1.10;99.90;;;;;;4983122;28;20187;-61
2024/01/28 03:25:09;;;;;;;15.03;8.00;;;-1.10;99.90;;;;;;4981073;28;20811;-61
2024/01/28 03:27:35;;;;;;;13.30;7.47;;;-1.10;99.90;;;;;;4983462;28;20238;-61
2024/01/28 03:30:04;;;;;;;13.60;7.30;;;-1.10;99.90;;;;;;4986405;28;20209;-60
2024/01/28 03:32:30;;;;;;;14.67;7.40;;;-1.20;99.90;;;;;;4987461;28;20500;-60
2024/01/28 03:34:56;;;;;;;18.40;9.07;;;-1.10;99.90;;;;;;4992275;28;20422;-61
2024/01/28 03:37:21;;;;;;;11.90;7.50;;;-1.10;99.90;;;;;;4988120;28;20457;-61
2024/01/28 03:39:47;;;;;;;12.27;7.80;;;-1.10;99.90;;;;;;4987123;28;20195;-61
2024/01/28 03:42:13;;;;;;;22.33;7.30;;;-1.10;99.90;;;;;;4982670;28;20192;-62
2024/01/28 03:44:38;;;;;;;10.90;7.10;;;-1.10;99.90;;;;;;4986492;28;20734;-60
2024/01/28 03:47:04;;;;;;;14.90;6.57;;;-1.10;99.90;;;;;;4987479;28;20179;-60
2024/01/28 03:49:29;;;;;;;11.77;7.07;;;-1.10;99.90;;;;;;4988150;28;20242;-60
2024/01/28 03:51:55;;;;;;;18.50;8.40;;;-1.20;99.90;;;;;;4982575;28;20241;-61
2024/01/28 03:54:20;;;;;;;11.17;6.50;;;-1.20;99.90;;;;;;4990671;28;20186;-61
2024/01/28 03:56:46;;;;;;;11.93;7.30;;;-1.20;99.90;;;;;;4990817;28;20677;-61
2024/01/28 03:59:13;;;;;;;17.17;6.67;;;-1.20;99.90;;;;;;4990537;28;20195;-61
2024/01/28 04:01:39;;;;;;;12.53;6.80;;;-1.20;99.90;;;;;;4992259;28;20551;-61
2024/01/28 04:04:05;;;;;;;9.77;5.80;;;-1.20;99.90;;;;;;4991659;28;20426;-60
2024/01/28 04:06:31;;;;;;;12.03;6.70;;;-1.30;99.90;;;;;;4992818;28;20423;-61
2024/01/28 04:08:56;;;;;;;13.53;7.60;;;-1.30;99.90;;;;;;4990471;28;20947;-60
2024/01/28 04:11:26;;;;;;;11.13;6.20;;;-1.40;99.90;;;;;;4989199;28;20227;-61
2024/01/28 04:13:53;;;;;;;12.60;6.37;;;-1.40;99.90;;;;;;4991575;28;20438;-61
2024/01/28 04:16:20;;;;;;;11.13;6.63;;;-1.40;99.90;;;;;;4989441;28;20426;-60
2024/01/28 04:18:46;;;;;;;8.67;6.50;;;-1.40;99.90;;;;;;4986227;28;20461;-61
2024/01/28 04:21:12;;;;;;;11.50;6.70;;;-1.40;99.90;;;;;;4990225;28;20429;-60
2024/01/28 04:23:41;;;;;;;14.43;7.00;;;-1.50;99.90;;;;;;4987476;28;20533;-59
2024/01/28 04:26:07;;;;;;;10.93;6.90;;;-1.50;99.90;;;;;;4989265;28;20562;-60
2024/01/28 04:28:33;;;;;;;13.20;7.40;;;-1.50;99.90;;;;;;4991695;28;20997;-61
2024/01/28 04:30:58;;;;;;;11.93;7.40;;;-1.50;99.90;;;;;;4990369;28;20485;-60
2024/01/28 04:33:24;;;;;;;8.97;6.03;;;-1.50;99.90;;;;;;4991309;28;20252;-60
2024/01/28 04:35:50;;;;;;;9.37;6.30;;;-1.50;99.90;;;;;;4995397;28;20174;-61
2024/01/28 04:38:16;;;;;;;10.43;6.30;;;-1.60;99.90;;;;;;4992537;28;20560;-60
2024/01/28 04:40:42;;;;;;;9.17;6.00;;;-1.60;99.90;;;;;;4990108;28;20508;-60
2024/01/28 04:43:07;;;;;;;12.90;6.83;;;-1.60;99.90;;;;;;4989606;28;20212;-60
2024/01/28 04:45:33;;;;;;;11.70;7.40;;;-1.60;99.90;;;;;;4991933;28;20214;-60
2024/01/28 04:47:58;;;;;;;11.47;7.13;;;-1.60;99.90;;;;;;4990022;28;20189;-60
2024/01/28 04:50:24;;;;;;;16.23;7.80;;;-1.60;99.90;;;;;;4985452;28;20210;-60
2024/01/28 04:52:51;;;;;;;12.10;6.40;;;-1.60;99.90;;;;;;4992094;28;20197;-61
2024/01/28 04:55:16;;;;;;;10.10;6.67;;;-1.60;99.90;;;;;;4990127;28;20175;-61
2024/01/28 04:57:42;;;;;;;11.60;6.40;;;-1.60;99.90;;;;;;4989070;28;20473;-61
2024/01/28 05:00:10;;;;;;;14.90;7.00;;;-1.60;99.90;;;;;;4997323;28;20238;-60
2024/01/28 05:02:36;;;;;;;14.30;6.67;;;-1.70;99.90;;;;;;4983950;28;20191;-61
2024/01/28 05:05:02;;;;;;;11.63;7.00;;;-1.70;99.90;;;;;;4990832;28;20502;-61
2024/01/28 05:07:27;;;;;;;10.80;6.70;;;-1.70;99.90;;;;;;4986293;28;20510;-61
2024/01/28 05:09:53;;;;;;;11.70;6.77;;;-1.70;99.90;;;;;;4991056;28;20202;-60
2024/01/28 05:12:19;;;;;;;10.47;6.30;;;-1.80;99.90;;;;;;4990591;28;20207;-61
2024/01/28 05:14:46;;;;;;;11.37;6.80;;;-1.80;99.90;;;;;;4983615;28;20180;-62
2024/01/28 05:17:12;;;;;;;9.03;5.90;;;-1.80;99.90;;;;;;4982361;28;20227;-61
2024/01/28 05:19:37;;;;;;;12.53;7.10;;;-1.80;99.90;;;;;;4988413;28;20513;-61
2024/01/28 05:22:04;;;;;;;9.67;7.00;;;-1.80;99.90;;;;;;4985754;28;20256;-61
2024/01/28 05:24:30;;;;;;;10.90;6.70;;;-1.80;99.90;;;;;;4986965;28;20264;-61
2024/01/28 05:26:55;;;;;;;11.90;7.03;;;-1.90;99.90;;;;;;4990886;28;20430;-61
2024/01/28 05:29:21;;;;;;;10.00;7.40;;;-1.80;99.90;;;;;;4991579;28;20456;-61
2024/01/28 05:31:47;;;;;;;17.33;7.00;;;-1.80;99.90;;;;;;4987824;28;20210;-60
2024/01/28 05:34:12;;;;;;;14.80;7.60;;;-1.90;99.90;;;;;;4988283;28;20590;-61
2024/01/28 05:36:38;;;;;;;18.43;8.47;;;-1.90;99.90;;;;;;4990444;28;20190;-60
2024/01/28 05:39:03;;;;;;;13.63;8.43;;;-1.90;99.90;;;;;;4989472;28;20208;-60
2024/01/28 05:41:29;;;;;;;15.13;7.80;;;-1.90;99.90;;;;;;4987618;28;20683;-60
2024/01/28 05:43:55;;;;;;;16.40;9.07;;;-1.90;99.90;;;;;;4991327;28;20265;-60
2024/01/28 05:46:20;;;;;;;17.07;9.43;;;-1.90;99.90;;;;;;4989409;28;20854;-60
2024/01/28 05:48:46;;;;;;;15.43;9.77;;;-1.90;99.90;;;;;;4988162;28;20677;-60
2024/01/28 05:51:12;;;;;;;18.70;8.83;;;-1.90;99.90;;;;;;4987748;28;20659;-60
2024/01/28 05:53:37;;;;;;;13.93;9.13;;;-1.90;99.90;;;;;;4989570;28;20192;-60
2024/01/28 05:56:04;;;;;;;12.20;7.57;;;-1.90;99.90;;;;;;4988804;28;20194;-58
2024/01/28 05:58:29;;;;;;;13.80;7.57;;;-1.90;99.90;;;;;;4984421;28;20767;-59
2024/01/28 06:00:55;;;;;;;9.33;6.50;;;-2.00;99.90;;;;;;4984673;28;20467;-59
2024/01/28 06:03:21;;;;;;;12.60;7.20;;;-2.00;99.90;;;;;;4988460;28;20437;-60
2024/01/28 06:05:46;;;;;;;13.37;7.80;;;-2.00;99.90;;;;;;4996300;28;20674;-60
2024/01/28 06:08:13;;;;;;;11.33;6.53;;;-2.00;99.90;;;;;;4987211;28;20253;-60
2024/01/28 06:10:39;;;;;;;11.13;6.87;;;-2.00;99.90;;;;;;4990790;28;20200;-60
2024/01/28 06:13:05;;;;;;;11.00;7.40;;;-2.10;99.90;;;;;;4986157;28;20428;-59
2024/01/28 06:15:31;;;;;;;12.63;7.17;;;-2.10;99.90;;;;;;4985012;28;20187;-59
2024/01/28 06:17:57;;;;;;;11.27;7.10;;;-2.10;99.90;;;;;;4988276;28;20581;-60
2024/01/28 06:20:22;;;;;;;15.07;7.33;;;-2.10;99.90;;;;;;4986551;28;20199;-59
2024/01/28 06:22:48;;;;;;;12.73;7.90;;;-2.10;99.90;;;;;;4989368;28;20467;-59
2024/01/28 06:25:14;;;;;;;12.20;7.50;;;-2.10;99.90;;;;;;4985767;28;20270;-59
2024/01/28 06:27:39;;;;;;;13.17;6.83;;;-2.20;99.90;;;;;;4989472;28;20188;-61
2024/01/28 06:30:06;;;;;;;9.40;6.70;;;-2.20;99.90;;;;;;4984941;28;20211;-58
2024/01/28 06:32:32;;;;;;;12.70;6.70;;;-2.20;99.90;;;;;;4985140;28;20192;-62
2024/01/28 06:34:57;;;;;;;23.37;9.00;;;-2.20;99.90;;;;;;4983761;28;20456;-59
2024/01/28 06:37:24;;;;;;;13.80;7.97;;;-2.10;99.90;;;;;;4988709;28;20497;-62
2024/01/28 06:39:51;;;;;;;14.23;7.90;;;-2.10;99.90;;;;;;4988421;28;20196;-59
2024/01/28 06:42:20;;;;;;;13.13;7.00;;;-2.10;99.90;;;;;;4986104;28;20434;-59
2024/01/28 06:44:47;;;;;;;11.60;7.17;;;-2.10;99.90;;;;;;4988462;28;20433;-60
2024/01/28 06:47:12;;;;;;;10.60;6.77;;;-2.10;99.90;;;;;;4986506;28;20546;-60
2024/01/28 06:49:38;;;;;;;10.50;6.67;;;-2.10;99.90;;;;;;4987191;28;20556;-60
2024/01/28 06:52:04;;;;;;;15.40;7.23;;;-2.20;99.90;;;;;;4988462;28;20183;-60
2024/01/28 06:54:30;;;;;;;12.03;6.87;;;-2.20;99.90;;;;;;4991205;28;20175;-59
2024/01/28 06:56:56;;;;;;;14.40;7.23;;;-2.20;99.90;;;;;;4987349;28;20517;-61
2024/01/28 06:59:23;;;;;;;14.67;7.03;;;-2.20;99.90;;;;;;4988502;28;20929;-60
2024/01/28 07:01:48;;;;;;;12.20;6.97;;;-2.20;99.90;;;;;;4986745;28;20175;-60
2024/01/28 07:04:14;;;;;;;20.73;9.63;;;-2.20;99.90;;;;;;4988137;28;20433;-59
2024/01/28 07:06:40;;;;;;;22.17;10.67;;;-2.20;99.90;;;;;;4987021;28;20599;-60
2024/01/28 07:09:07;;;;;;;28.17;12.20;;;-2.20;99.90;;;;;;4988839;28;20305;-59
2024/01/28 07:11:33;;;;;;;25.63;12.37;;;-2.20;99.90;;;;;;4985128;28;20182;-61
2024/01/28 07:13:59;;;;;;;18.93;10.43;;;-2.20;99.90;;;;;;4992412;28;20425;-60
2024/01/28 07:16:24;;;;;;;18.10;9.83;;;-2.20;99.90;;;;;;4984959;28;20446;-61
2024/01/28 07:18:52;;;;;;;18.50;10.50;;;-2.20;99.90;;;;;;4987899;28;20351;-60
2024/01/28 07:21:18;;;;;;;16.20;10.37;;;-2.20;99.90;;;;;;4987658;28;20176;-60
2024/01/28 07:23:43;;;;;;;19.17;9.47;;;-2.20;99.90;;;;;;4987997;28;20423;-60
2024/01/28 07:26:09;;;;;;;16.43;8.83;;;-2.20;99.90;;;;;;4982059;28;20461;-60
2024/01/28 07:28:35;;;;;;;21.80;9.73;;;-2.20;99.90;;;;;;4991852;28;20194;-60
2024/01/28 07:31:01;;;;;;;15.13;8.03;;;-2.20;99.90;;;;;;4985588;28;20233;-60
2024/01/28 07:33:26;;;;;;;17.10;9.67;;;-2.20;99.90;;;;;;4987429;28;20501;-60
2024/01/28 07:35:52;;;;;;;12.20;8.00;;;-2.20;99.90;;;;;;4988479;28;20195;-60
2024/01/28 07:38:18;;;;;;;16.77;8.50;;;-2.20;99.90;;;;;;4986009;28;20199;-60
2024/01/28 07:40:43;;;;;;;16.13;8.40;;;-2.10;99.90;;;;;;4983879;28;20195;-59
2024/01/28 07:43:09;;;;;;;15.13;8.60;;;-2.10;99.90;;;;;;4988193;28;20181;-59
2024/01/28 07:45:37;;;;;;;17.70;8.10;;;-2.10;99.90;;;;;;4984600;28;20671;-60
2024/01/28 07:48:03;;;;;;;12.47;8.00;;;-2.00;99.90;;;;;;4987033;28;20191;-59
2024/01/28 07:50:28;;;;;;;15.93;9.17;;;-2.00;99.90;;;;;;4977552;28;20545;-60
2024/01/28 07:52:54;;;;;;;16.77;10.13;;;-1.90;99.90;;;;;;4984389;28;20422;-61
2024/01/28 07:55:20;;;;;;;19.83;9.23;;;-1.90;99.90;;;;;;4985566;28;20662;-61
2024/01/28 07:57:45;;;;;;;19.20;8.67;;;-1.90;99.90;;;;;;4989301;28;20577;-60
2024/01/28 08:00:12;;;;;;;14.90;8.27;;;-1.80;99.90;;;;;;4984235;28;20199;-61
2024/01/28 08:02:37;;;;;;;21.37;9.10;;;-1.80;99.90;;;;;;4989289;28;20266;-61
2024/01/28 08:05:04;;;;;;;14.03;8.53;;;-1.80;99.90;;;;;;4987190;28;20874;-61
2024/01/28 08:07:29;;;;;;;20.87;9.87;;;-1.80;99.90;;;;;;4987059;28;20179;-61
2024/01/28 08:09:55;;;;;;;19.77;10.67;;;-1.80;99.90;;;;;;4983423;28;20508;-60
2024/01/28 08:12:20;;;;;;;13.43;8.73;;;-1.70;99.90;;;;;;4993868;28;20193;-59
2024/01/28 08:14:46;;;;;;;15.67;9.10;;;-1.70;99.90;;;;;;4978809;28;20172;-60
2024/01/28 08:17:12;;;;;;;22.77;9.80;;;-1.70;99.90;;;;;;4990422;28;20187;-59
2024/01/28 08:19:38;;;;;;;18.90;10.00;;;-1.60;99.90;;;;;;4985657;28;20193;-61
2024/01/28 08:22:04;;;;;;;19.90;9.30;;;-1.60;99.90;;;;;;4987721;28;20200;-61
2024/01/28 08:24:30;;;;;;;12.77;7.60;;;-1.50;99.90;;;;;;4987333;28;20473;-61
2024/01/28 08:26:56;;;;;;;17.20;9.20;;;-1.50;99.90;;;;;;4988740;28;20431;-61
2024/01/28 08:29:22;;;;;;;17.43;9.73;;;-1.40;99.90;;;;;;4985237;28;20871;-60
2024/01/28 08:31:48;;;;;;;17.57;8.43;;;-1.30;99.90;;;;;;4983680;28;20172;-61
2024/01/28 08:34:13;;;;;;;16.87;9.33;;;-1.30;99.90;;;;;;4986378;28;20509;-61
2024/01/28 08:36:39;;;;;;;19.57;9.10;;;-1.20;99.90;;;;;;4973630;28;20194;-61
2024/01/28 08:39:05;;;;;;;19.03;9.03;;;-1.20;99.90;;;;;;4982214;28;20207;-57
2024/01/28 08:41:31;;;;;;;13.47;7.80;;;-1.10;99.90;;;;;;4985646;28;20284;-57
2024/01/28 08:43:57;;;;;;;10.40;6.73;;;-1.00;99.90;;;;;;4989008;28;20450;-60
2024/01/28 08:46:23;;;;;;;11.93;6.60;;;-0.90;99.90;;;;;;4982665;28;20528;-63
2024/01/28 08:48:48;;;;;;;14.90;6.77;;;-0.80;99.90;;;;;;4983381;28;20423;-62
2024/01/28 08:51:14;;;;;;;16.40;7.20;;;-0.80;99.90;;;;;;4991417;28;20206;-62
2024/01/28 08:53:42;;;;;;;9.10;5.50;;;-0.70;99.90;;;;;;4990312;28;21940;-62
2024/01/28 08:56:07;;;;;;;10.00;6.63;;;-0.70;99.90;;;;;;4987947;28;20186;-60
2024/01/28 08:58:33;;;;;;;12.97;6.60;;;-0.60;99.90;;;;;;4985922;28;20465;-61
2024/01/28 09:00:59;;;;;;;13.20;7.23;;;-0.50;99.90;;;;;;4995714;28;20265;-62
2024/01/28 09:03:24;;;;;;;12.47;7.60;;;-0.50;99.90;;;;;;4989627;28;20172;-62
2024/01/28 09:05:50;;;;;;;14.47;7.80;;;-0.40;99.90;;;;;;4985016;28;20202;-62
2024/01/28 09:08:16;;;;;;;9.77;6.60;;;-0.30;99.90;;;;;;4988780;28;20250;-61
2024/01/28 09:10:42;;;;;;;14.63;8.00;;;-0.20;99.90;;;;;;4987964;28;20470;-62
2024/01/28 09:13:07;;;;;;;13.17;7.60;;;-0.10;99.90;;;;;;4989520;28;20215;-61
2024/01/28 09:15:33;;;;;;;12.70;8.07;;;-0.10;99.90;;;;;;4988826;28;20179;-61
2024/01/28 09:17:58;;;;;;;16.00;8.93;;;0.00;99.90;;;;;;4984660;28;20561;-61
2024/01/28 09:20:24;;;;;;;14.77;8.97;;;0.10;99.90;;;;;;4987136;28;20200;-61
2024/01/28 09:22:50;;;;;;;12.23;7.50;;;0.20;99.90;;;;;;4979479;28;20173;-61
2024/01/28 09:25:15;;;;;;;14.67;7.20;;;0.30;99.90;;;;;;4987258;28;21318;-61
2024/01/28 09:27:42;;;;;;;13.67;7.30;;;0.40;99.90;;;;;;4986848;28;20198;-61
2024/01/28 09:30:10;;;;;;;9.63;5.90;;;0.50;99.90;;;;;;4984526;28;20694;-61
2024/01/28 09:32:35;;;;;;;7.17;5.20;;;0.60;99.90;;;;;;4985549;28;20444;-62
2024/01/28 09:35:01;;;;;;;10.47;5.87;;;0.70;99.90;;;;;;4987420;28;20428;-61
2024/01/28 09:37:27;;;;;;;8.67;5.60;;;0.80;99.90;;;;;;4994176;28;20204;-62
2024/01/28 09:39:52;;;;;;;10.20;5.53;;;0.90;99.90;;;;;;4989084;28;20694;-62
2024/01/28 09:42:36;;;;;;;10.27;5.63;;;1.00;99.90;;;;;;4983920;28;20184;-61
2024/01/28 09:45:02;;;;;;;15.37;7.23;;;1.10;99.90;;;;;;4984650;28;20177;-62
2024/01/28 09:47:32;;;;;;;13.73;7.17;;;1.20;99.90;;;;;;4984555;28;20849;-61
2024/01/28 09:50:00;;;;;;;14.80;7.07;;;1.30;99.90;;;;;;4986552;28;20479;-62
2024/01/28 09:52:27;;;;;;;11.70;6.80;;;1.40;99.90;;;;;;4987260;28;20424;-61
2024/01/28 09:54:52;;;;;;;10.10;6.37;;;1.50;99.90;;;;;;4979733;28;20459;-61
2024/01/28 09:57:18;;;;;;;10.77;6.50;;;1.60;99.90;;;;;;4982951;28;20456;-62
2024/01/28 09:59:45;;;;;;;10.03;6.00;;;1.70;99.90;;;;;;4985945;28;20321;-62
2024/01/28 10:02:15;;;;;;;8.60;5.93;;;1.80;99.90;;;;;;4983693;28;20431;-61
2024/01/28 10:04:42;;;;;;;10.23;6.27;;;2.00;99.90;;;;;;4982577;28;20435;-62
2024/01/28 10:07:09;;;;;;;11.43;6.73;;;2.10;99.90;;;;;;4984957;28;20409;-60
2024/01/28 10:09:35;;;;;;;10.77;6.43;;;2.20;99.90;;;;;;4986638;28;20538;-62
2024/01/28 10:12:01;;;;;;;7.57;5.90;;;2.30;99.90;;;;;;4981230;28;20541;-61
2024/01/28 10:14:27;;;;;;;12.47;7.33;;;2.50;99.90;;;;;;4983981;28;20316;-61
2024/01/28 10:16:54;;;;;;;10.13;5.43;;;2.60;99.90;;;;;;4983696;28;20850;-62
2024/01/28 10:19:20;;;;;;;8.00;5.93;;;2.80;99.90;;;;;;4985202;28;20472;-62
2024/01/28 10:21:46;;;;;;;9.30;5.67;;;2.90;99.90;;;;;;4986853;28;20411;-61
2024/01/28 10:24:14;;;;;;;11.30;6.33;;;3.10;99.90;;;;;;4985467;28;20441;-61
2024/01/28 10:26:40;;;;;;;8.90;5.20;;;3.20;99.90;;;;;;4984742;28;20419;-61
2024/01/28 10:29:09;;;;;;;9.30;6.13;;;3.30;99.90;;;;;;4984086;28;20484;-61
2024/01/28 10:31:34;;;;;;;8.43;5.77;;;3.40;99.90;;;;;;4985064;28;20966;-61
2024/01/28 10:34:00;;;;;;;8.83;5.90;;;3.50;99.90;;;;;;4987207;28;20441;-61
2024/01/28 10:36:27;;;;;;;10.67;6.03;;;3.50;99.90;;;;;;4989511;28;20942;-61
2024/01/28 10:38:59;;;;;;;6.83;5.43;;;3.60;99.90;;;;;;4985544;28;20235;-61
2024/01/28 10:41:25;;;;;;;9.40;6.20;;;3.60;99.90;;;;;;4987231;28;20995;-61
2024/01/28 10:43:58;;;;;;;9.13;6.50;;;3.70;99.90;;;;;;4984837;28;20448;-62
2024/01/28 10:46:44;;;;;;;9.13;6.13;;;3.80;99.90;;;;;;4985354;28;20188;-61
2024/01/28 10:49:10;;;;;;;9.80;6.40;;;3.90;99.50;;;;;;4982558;28;20436;-61
2024/01/28 10:51:39;;;;;;;8.67;6.30;;;4.10;99.90;;;;;;4987922;28;20453;-61
2024/01/28 10:54:10;;;;;;;8.40;6.23;;;4.20;99.60;;;;;;4985919;28;20436;-61
2024/01/28 10:56:39;;;;;;;9.63;5.60;;;4.40;98.10;;;;;;4986380;28;20428;-61
2024/01/28 10:59:05;;;;;;;7.93;6.13;;;4.50;95.40;;;;;;4980461;28;20467;-61
2024/01/28 11:01:32;;;;;;;10.67;5.30;;;4.60;94.30;;;;;;4991789;28;21032;-61
2024/01/28 11:03:59;;;;;;;9.57;6.40;;;4.70;93.30;;;;;;4984769;28;20174;-63
2024/01/28 11:06:26;;;;;;;10.00;6.30;;;4.80;91.00;;;;;;4986899;28;20440;-61
2024/01/28 11:08:55;;;;;;;7.97;5.70;;;4.90;88.70;;;;;;4988458;28;20567;-60
2024/01/28 11:11:21;;;;;;;9.23;6.57;;;5.10;88.50;;;;;;4983712;28;20423;-61
2024/01/28 11:13:47;;;;;;;8.40;5.27;;;5.20;86.30;;;;;;4982479;28;20435;-61
2024/01/28 11:16:15;;;;;;;7.53;6.00;;;5.40;81.50;;;;;;4984952;28;20432;-61
2024/01/28 11:18:41;;;;;;;7.03;4.67;;;5.40;79.80;;;;;;4986436;28;20232;-62
2024/01/28 11:21:11;;;;;;;5.57;4.43;;;5.50;78.20;;;;;;4980214;28;20520;-62
2024/01/28 11:23:43;;;;;;;9.30;5.13;;;5.70;77.30;;;;;;4984011;28;20527;-61
2024/01/28 11:26:14;;;;;;;6.20;4.50;;;5.80;73.30;;;;;;4983370;28;20435;-61
2024/01/28 11:28:49;;;;;;;10.80;4.33;;;5.90;73.00;;;;;;4985979;28;20806;-62
2024/01/28 11:31:21;;;;;;;6.57;4.50;;;6.10;72.10;;;;;;4986649;28;20439;-61
2024/01/28 11:33:47;;;;;;;6.53;5.13;;;6.30;70.50;;;;;;4989103;28;20499;-63
2024/01/28 11:36:20;;;;;;;6.93;5.30;;;6.40;69.10;;;;;;4983137;28;20439;-59
2024/01/28 11:38:50;;;;;;;7.67;5.10;;;6.50;68.90;;;;;;4989557;28;20211;-60
2024/01/28 11:41:18;;;;;;;6.57;4.73;;;6.60;68.70;;;;;;4987020;28;20432;-61
2024/01/28 11:43:44;;;;;;;7.43;5.07;;;6.70;67.40;;;;;;4984346;28;20567;-60
2024/01/28 11:46:10;;;;;;;7.50;4.93;;;6.90;66.80;;;;;;4982975;28;20504;-62
2024/01/28 11:48:36;;;;;;;7.30;4.67;;;6.90;66.30;;;;;;4981229;28;20180;-61
2024/01/28 11:51:01;;;;;;;8.07;5.50;;;7.10;66.00;;;;;;4979005;28;20443;-62
2024/01/28 11:53:27;;;;;;;6.10;4.90;;;7.20;65.50;;;;;;4986713;28;20284;-62
2024/01/28 11:55:53;;;;;;;6.00;4.67;;;7.30;64.30;;;;;;4983821;28;20173;-59
2024/01/28 11:58:19;;;;;;;8.17;5.00;;;7.30;64.00;;;;;;4983881;28;20205;-62
2024/01/28 12:00:45;;;;;;;8.77;5.77;;;7.40;63.90;;;;;;4985363;28;20208;-62
2024/01/28 12:03:10;;;;;;;13.57;5.60;;;7.50;63.10;;;;;;4985045;28;20439;-61
2024/01/28 12:05:36;;;;;;;9.83;5.00;;;7.60;62.70;;;;;;4986618;28;20173;-62
2024/01/28 12:08:02;;;;;;;6.60;4.53;;;7.60;62.80;;;;;;4984754;28;20595;-62
2024/01/28 12:10:28;;;;;;;7.43;4.80;;;7.70;63.10;;;;;;4986999;28;20311;-61
2024/01/28 12:12:56;;;;;;;8.30;5.20;;;7.80;63.30;;;;;;4981958;28;20439;-61
2024/01/28 12:15:23;;;;;;;8.03;5.20;;;7.90;63.10;;;;;;4991337;28;20559;-61
2024/01/28 12:17:51;;;;;;;7.00;4.90;;;8.00;63.10;;;;;;4987526;28;20452;-62
2024/01/28 12:20:23;;;;;;;6.93;4.47;;;8.10;62.80;;;;;;4985317;28;20513;-61
2024/01/28 12:22:49;;;;;;;9.53;4.57;;;8.10;62.20;;;;;;4989025;28;20983;-62
2024/01/28 12:25:21;;;;;;;7.40;5.27;;;8.10;62.30;;;;;;4990782;28;20428;-61
2024/01/28 12:27:48;;;;;;;8.30;5.53;;;8.20;62.90;;;;;;4987872;28;20448;-61
2024/01/28 12:30:14;;;;;;;9.23;5.77;;;8.20;62.70;;;;;;4986327;28;20546;-60
2024/01/28 12:32:39;;;;;;;10.57;5.80;;;8.20;62.20;;;;;;4987717;28;20531;-62
2024/01/28 12:35:07;;;;;;;11.13;6.60;;;8.10;62.10;;;;;;4991947;28;20431;-60